Time;durP1;ratioP1;P1;durP2;ratioP2;P2;SDS_P1;SDS_P2;PMS_P1;PMS_P2;Temp;Humidity;BMP_temperature;BMP_pressure;BME280_temperature;BME280_humidity;BME280_pressure;Samples;Min_cycle;Max_cycle;Signal;HPM_P1;HPM_P2
2023/02/09 00:01:53;;;;;;;4.82;4.32;;;17.10;47.90;;;;;;5114067;28;20208;-54
2023/02/09 00:04:19;;;;;;;4.75;4.32;;;17.10;47.90;;;;;;5114099;28;20199;-54
2023/02/09 00:06:44;;;;;;;4.45;4.05;;;17.00;47.90;;;;;;5113633;28;20191;-55
2023/02/09 00:09:10;;;;;;;5.07;4.57;;;17.00;48.40;;;;;;5113765;28;20176;-55
2023/02/09 00:14:20;;;;;;;4.53;4.13;;;17.00;47.80;;;;;;5112980;28;20249;-54
2023/02/09 00:16:45;;;;;;;4.97;4.57;;;17.00;47.80;;;;;;5114224;28;20643;-52
2023/02/09 00:19:11;;;;;;;4.70;4.13;;;16.90;47.70;;;;;;5113943;28;20212;-54
2023/02/09 00:21:37;;;;;;;5.68;4.60;;;16.90;47.80;;;;;;5112701;28;20213;-51
2023/02/09 00:24:03;;;;;;;5.15;4.00;;;16.90;47.80;;;;;;5113846;28;20256;-50
2023/02/09 00:26:28;;;;;;;4.28;3.88;;;16.80;47.70;;;;;;5113005;28;20589;-52
2023/02/09 00:28:54;;;;;;;5.15;4.65;;;16.80;47.70;;;;;;5113702;28;20274;-55
2023/02/09 00:31:19;;;;;;;4.45;4.05;;;16.80;47.80;;;;;;5113569;28;20173;-53
2023/02/09 00:33:45;;;;;;;5.03;4.22;;;16.80;47.90;;;;;;5113248;28;20575;-52
2023/02/09 00:36:11;;;;;;;4.68;4.20;;;16.80;47.90;;;;;;5114165;28;20169;-53
2023/02/09 00:38:38;;;;;;;4.47;4.07;;;16.70;47.80;;;;;;5113478;28;20177;-55
2023/02/09 00:41:04;;;;;;;5.38;4.55;;;16.70;47.70;;;;;;5112880;28;20250;-51
2023/02/09 00:43:29;;;;;;;5.50;4.35;;;16.70;47.70;;;;;;5113327;28;20177;-50
2023/02/09 00:45:55;;;;;;;5.20;4.70;;;16.70;47.80;;;;;;5113898;28;20177;-54
2023/02/09 00:48:20;;;;;;;4.82;4.40;;;16.70;47.80;;;;;;5112365;28;20623;-54
2023/02/09 00:50:46;;;;;;;4.85;4.35;;;16.60;47.60;;;;;;5113490;28;20185;-53
2023/02/09 00:53:11;;;;;;;4.50;4.10;;;16.70;47.80;;;;;;5113672;28;20214;-49
2023/02/09 00:55:37;;;;;;;4.93;4.40;;;16.60;47.70;;;;;;5112432;28;20169;-54
2023/02/09 00:58:02;;;;;;;4.53;4.05;;;16.60;47.70;;;;;;5113392;28;20165;-51
2023/02/09 01:00:28;;;;;;;4.40;4.00;;;16.60;47.70;;;;;;5113100;28;20258;-53
2023/02/09 01:02:55;;;;;;;4.78;4.28;;;16.60;47.70;;;;;;5112545;28;20210;-54
2023/02/09 01:05:21;;;;;;;4.53;4.13;;;16.60;47.70;;;;;;5113182;28;20592;-55
2023/02/09 01:07:46;;;;;;;4.93;4.43;;;16.60;47.70;;;;;;5337161;22;20218;-54
2023/02/09 01:10:12;;;;;;;4.07;3.67;;;16.50;47.70;;;;;;5052306;28;20721;-54
2023/02/09 01:12:39;;;;;;;4.45;4.05;;;16.50;47.60;;;;;;5052153;28;20229;-54
2023/02/09 01:15:05;;;;;;;4.32;3.92;;;16.50;47.60;;;;;;5051618;28;20224;-53
2023/02/09 01:17:31;;;;;;;5.00;4.38;;;16.50;47.70;;;;;;5052170;28;20175;-54
2023/02/09 01:19:56;;;;;;;4.47;4.07;;;16.40;47.60;;;;;;5051793;28;20179;-55
2023/02/09 01:22:22;;;;;;;3.83;3.53;;;16.40;47.70;;;;;;5055201;28;20179;-54
2023/02/09 01:24:47;;;;;;;4.47;3.97;;;16.40;47.60;;;;;;5055802;28;20198;-54
2023/02/09 01:27:13;;;;;;;4.68;4.28;;;16.40;47.80;;;;;;5055326;28;20186;-53
2023/02/09 01:29:39;;;;;;;5.13;4.63;;;16.40;47.70;;;;;;5054484;28;20258;-53
2023/02/09 01:32:04;;;;;;;4.20;3.80;;;16.40;47.70;;;;;;5056324;28;20254;-55
2023/02/09 01:34:30;;;;;;;4.57;4.18;;;16.40;47.70;;;;;;5056128;28;20637;-55
2023/02/09 01:36:55;;;;;;;4.35;3.95;;;16.40;47.70;;;;;;5054872;28;20692;-53
2023/02/09 01:39:21;;;;;;;4.68;4.28;;;16.40;47.70;;;;;;5055828;28;20248;-53
2023/02/09 01:41:46;;;;;;;5.10;4.53;;;16.40;47.70;;;;;;5054251;28;20846;-54
2023/02/09 01:44:15;;;;;;;4.25;3.85;;;16.30;47.70;;;;;;5055163;28;20174;-55
2023/02/09 01:46:40;;;;;;;4.43;4.03;;;16.30;47.70;;;;;;5055452;28;20186;-56
2023/02/09 01:49:18;;;;;;;4.30;3.90;;;16.30;47.70;;;;;;5055753;28;20175;-54
2023/02/09 01:51:50;;;;;;;4.88;4.40;;;16.30;47.70;;;;;;5037249;28;20179;-52
2023/02/09 01:54:38;;;;;;;4.00;3.60;;;16.30;47.70;;;;;;5055920;28;20254;-54
2023/02/09 01:57:12;;;;;;;4.40;3.90;;;16.30;47.70;;;;;;5054334;28;20198;-55
2023/02/09 01:59:39;;;;;;;4.45;4.05;;;16.30;47.70;;;;;;5037667;28;20626;-55
2023/02/09 02:02:05;;;;;;;4.25;3.85;;;16.20;47.70;;;;;;5038172;28;20195;-56
2023/02/09 02:04:31;;;;;;;4.70;3.97;;;16.30;47.70;;;;;;5037036;28;20659;-56
2023/02/09 02:06:58;;;;;;;4.93;4.43;;;16.20;47.70;;;;;;5037966;28;20183;-56
2023/02/09 02:09:23;;;;;;;4.70;4.13;;;16.20;47.70;;;;;;5037576;28;20223;-51
2023/02/09 02:11:49;;;;;;;4.00;3.60;;;16.20;47.70;;;;;;5036541;28;20167;-56
2023/02/09 02:14:41;;;;;;;4.70;4.25;;;16.20;47.70;;;;;;5037367;28;20182;-55
2023/02/09 02:17:22;;;;;;;4.50;4.10;;;16.20;47.70;;;;;;5052487;28;20179;-55
2023/02/09 02:20:21;;;;;;;4.35;3.95;;;16.10;47.70;;;;;;5036515;28;20179;-55
2023/02/09 02:23:08;;;;;;;4.35;3.95;;;16.20;47.80;;;;;;5055035;28;20190;-54
2023/02/09 02:25:52;;;;;;;4.40;4.00;;;16.10;47.70;;;;;;5054227;28;20179;-54
2023/02/09 02:28:29;;;;;;;4.40;4.00;;;16.10;47.70;;;;;;5055019;28;20225;-54
2023/02/09 02:31:10;;;;;;;3.65;3.35;;;16.10;47.60;;;;;;5054879;28;20217;-54
2023/02/09 02:33:46;;;;;;;4.80;4.28;;;16.10;47.60;;;;;;5054121;28;20186;-55
2023/02/09 02:36:30;;;;;;;4.18;3.63;;;16.10;47.60;;;;;;5037341;28;20175;-55
2023/02/09 02:39:19;;;;;;;3.78;3.42;;;16.10;47.70;;;;;;5053962;28;20183;-55
2023/02/09 02:44:44;;;;;;;4.38;3.70;;;16.00;47.60;;;;;;5041059;28;20186;-56
2023/02/09 02:47:11;;;;;;;4.63;4.22;;;16.00;47.70;;;;;;5047652;28;20190;-51
2023/02/09 02:49:42;;;;;;;4.25;3.72;;;16.00;47.60;;;;;;5040531;28;20183;-54
2023/02/09 02:52:08;;;;;;;4.35;4.00;;;16.00;47.60;;;;;;5057937;28;20221;-50
2023/02/09 02:54:58;;;;;;;3.92;3.58;;;16.00;47.60;;;;;;5039705;28;20201;-55
2023/02/09 02:57:25;;;;;;;4.80;4.30;;;16.00;47.60;;;;;;5049567;28;20273;-53
2023/02/09 02:59:57;;;;;;;4.38;3.97;;;15.90;47.60;;;;;;5039615;28;20615;-55
2023/02/09 03:02:25;;;;;;;3.85;3.53;;;16.00;47.60;;;;;;5057061;28;20265;-55
2023/02/09 03:04:53;;;;;;;4.82;4.20;;;15.90;47.60;;;;;;5040498;28;20174;-54
2023/02/09 03:07:21;;;;;;;4.40;4.00;;;15.90;47.60;;;;;;5056400;28;20737;-51
2023/02/09 03:09:51;;;;;;;4.20;3.80;;;15.90;47.60;;;;;;5057033;28;20293;-52
2023/02/09 03:12:33;;;;;;;4.60;4.07;;;15.90;47.60;;;;;;5074857;28;20171;-53
2023/02/09 03:15:06;;;;;;;4.50;3.90;;;15.90;47.60;;;;;;5058479;28;20178;-54
2023/02/09 03:17:50;;;;;;;3.70;3.40;;;15.90;47.60;;;;;;5074396;28;20186;-53
2023/02/09 03:20:49;;;;;;;4.20;3.80;;;15.90;47.60;;;;;;5074535;28;20259;-55
2023/02/09 03:23:37;;;;;;;4.40;4.00;;;15.90;47.60;;;;;;5059009;28;20213;-53
2023/02/09 03:26:06;;;;;;;4.85;4.30;;;15.80;47.60;;;;;;5042789;28;20701;-54
2023/02/09 03:28:33;;;;;;;4.03;3.70;;;15.80;47.60;;;;;;5073458;28;20185;-54
2023/02/09 03:30:59;;;;;;;4.40;4.00;;;15.80;47.50;;;;;;5056451;28;20220;-53
2023/02/09 03:33:28;;;;;;;4.68;3.88;;;15.80;47.60;;;;;;5056735;28;20531;-55
2023/02/09 03:35:55;;;;;;;4.18;3.78;;;15.80;47.60;;;;;;5073112;28;20592;-53
2023/02/09 03:38:21;;;;;;;4.45;4.05;;;15.80;47.60;;;;;;5074361;28;20214;-53
2023/02/09 03:40:46;;;;;;;4.30;3.90;;;15.80;47.50;;;;;;5073512;28;20234;-51
2023/02/09 03:43:12;;;;;;;4.13;3.60;;;15.70;47.50;;;;;;5072374;28;20193;-53
2023/02/09 03:45:37;;;;;;;4.03;3.65;;;15.80;47.60;;;;;;5073299;28;20611;-54
2023/02/09 03:48:06;;;;;;;4.13;3.72;;;15.70;47.60;;;;;;5073719;28;20186;-51
2023/02/09 03:50:33;;;;;;;3.90;3.60;;;15.70;47.60;;;;;;5072806;28;20178;-53
2023/02/09 03:52:59;;;;;;;4.28;3.88;;;15.70;47.60;;;;;;5073537;28;20178;-53
2023/02/09 03:55:24;;;;;;;4.43;3.80;;;15.70;47.60;;;;;;5073469;28;20180;-52
2023/02/09 03:57:50;;;;;;;4.30;3.90;;;15.70;47.60;;;;;;5072374;28;20174;-53
2023/02/09 04:00:16;;;;;;;4.68;4.28;;;15.70;47.60;;;;;;5073281;28;20660;-53
2023/02/09 04:02:42;;;;;;;4.35;3.95;;;15.70;47.60;;;;;;5073042;28;20541;-55
2023/02/09 04:05:07;;;;;;;4.30;3.90;;;15.70;47.60;;;;;;5072743;28;20174;-55
2023/02/09 04:07:33;;;;;;;3.95;3.50;;;15.60;47.60;;;;;;5073134;28;20541;-53
2023/02/09 04:09:58;;;;;;;4.07;3.72;;;15.60;47.60;;;;;;5072736;28;20313;-55
2023/02/09 04:12:24;;;;;;;4.18;3.78;;;15.60;47.60;;;;;;5072698;28;20301;-54
2023/02/09 04:14:49;;;;;;;4.57;4.18;;;15.60;47.60;;;;;;5072569;28;20171;-53
2023/02/09 04:17:15;;;;;;;3.83;3.53;;;15.60;47.60;;;;;;5072943;28;20175;-54
2023/02/09 04:19:40;;;;;;;4.47;4.07;;;15.60;47.50;;;;;;5072306;28;20512;-53
2023/02/09 04:22:07;;;;;;;4.18;3.80;;;15.60;47.60;;;;;;5073368;28;20690;-54
2023/02/09 04:24:32;;;;;;;3.85;3.50;;;15.60;47.60;;;;;;5072261;28;20174;-51
2023/02/09 04:26:58;;;;;;;4.03;3.63;;;15.60;47.60;;;;;;5073193;28;20193;-53
2023/02/09 04:29:23;;;;;;;3.88;3.58;;;15.50;47.50;;;;;;5072884;28;20174;-51
2023/02/09 04:31:49;;;;;;;3.65;3.35;;;15.50;47.50;;;;;;5072330;28;20176;-56
2023/02/09 04:34:15;;;;;;;3.85;3.50;;;15.50;47.60;;;;;;5073142;28;20178;-55
2023/02/09 04:36:40;;;;;;;5.13;4.07;;;15.60;47.60;;;;;;5072934;28;20170;-55
2023/02/09 04:39:06;;;;;;;3.63;3.33;;;15.50;47.60;;;;;;5072395;28;20177;-55
2023/02/09 04:41:31;;;;;;;4.03;3.72;;;15.50;47.50;;;;;;5072744;28;20306;-55
2023/02/09 04:43:57;;;;;;;3.92;3.53;;;15.50;47.60;;;;;;5073089;28;20254;-55
2023/02/09 04:46:22;;;;;;;3.70;3.40;;;15.50;47.60;;;;;;5071986;28;20685;-55
2023/02/09 04:48:48;;;;;;;4.28;3.88;;;15.50;47.60;;;;;;5072587;28;20656;-55
2023/02/09 04:51:13;;;;;;;4.88;4.18;;;15.50;47.60;;;;;;5073124;28;20655;-55
2023/02/09 04:53:39;;;;;;;3.78;3.47;;;15.50;47.60;;;;;;5071758;28;20635;-51
2023/02/09 04:56:05;;;;;;;4.45;4.05;;;15.40;47.60;;;;;;5072883;28;20170;-56
2023/02/09 05:01:20;;;;;;;3.72;3.42;;;15.40;47.50;;;;;;5072232;28;20765;-55
2023/02/09 05:03:46;;;;;;;3.63;3.33;;;15.40;47.50;;;;;;5038724;28;20659;-51
2023/02/09 05:06:11;;;;;;;4.25;3.85;;;15.40;47.50;;;;;;5072604;28;20179;-55
2023/02/09 05:08:37;;;;;;;3.75;3.45;;;15.40;47.60;;;;;;5071827;28;20248;-51
2023/02/09 05:11:02;;;;;;;3.80;3.40;;;15.40;47.60;;;;;;5072867;28;20171;-55
2023/02/09 05:13:28;;;;;;;4.30;3.97;;;15.30;47.60;;;;;;5072465;28;20357;-54
2023/02/09 05:15:54;;;;;;;3.97;3.65;;;15.30;47.50;;;;;;5071838;28;20198;-52
2023/02/09 05:18:19;;;;;;;3.97;3.60;;;15.30;47.50;;;;;;5072632;28;20181;-52
2023/02/09 05:20:46;;;;;;;3.75;3.40;;;15.40;47.60;;;;;;5071432;28;20209;-56
2023/02/09 05:23:11;;;;;;;3.92;3.63;;;15.30;47.50;;;;;;5054793;28;20228;-53
2023/02/09 05:25:37;;;;;;;4.00;3.70;;;15.30;47.50;;;;;;5072308;28;20178;-54
2023/02/09 05:28:02;;;;;;;4.25;3.85;;;15.30;47.60;;;;;;5071767;28;20640;-55
2023/02/09 05:30:29;;;;;;;4.30;3.90;;;15.30;47.60;;;;;;5072636;28;20593;-54
2023/02/09 05:32:55;;;;;;;3.78;3.47;;;15.30;47.60;;;;;;5072377;28;20178;-56
2023/02/09 05:35:20;;;;;;;4.25;3.85;;;15.30;47.60;;;;;;5071895;28;20212;-54
2023/02/09 05:37:46;;;;;;;4.18;3.80;;;15.30;47.60;;;;;;5072111;28;20181;-55
2023/02/09 05:40:11;;;;;;;3.53;3.28;;;15.20;47.50;;;;;;5072130;28;20234;-56
2023/02/09 05:42:37;;;;;;;4.85;3.88;;;15.30;47.60;;;;;;5071501;28;20225;-56
2023/02/09 05:45:03;;;;;;;4.30;3.72;;;15.30;47.60;;;;;;5072310;28;20236;-56
2023/02/09 05:47:28;;;;;;;3.75;3.45;;;15.20;47.60;;;;;;5072339;28;20175;-53
2023/02/09 05:49:54;;;;;;;3.85;3.55;;;15.20;47.60;;;;;;5071265;28;20175;-56
2023/02/09 05:52:19;;;;;;;4.10;3.80;;;15.20;47.50;;;;;;5072299;28;20178;-54
2023/02/09 05:54:48;;;;;;;4.05;3.55;;;15.20;47.60;;;;;;5071549;28;20170;-55
2023/02/09 05:57:14;;;;;;;3.80;3.50;;;15.20;47.50;;;;;;5070992;28;20637;-54
2023/02/09 05:59:39;;;;;;;3.85;3.55;;;15.20;47.60;;;;;;5071512;28;20316;-56
2023/02/09 06:02:05;;;;;;;4.55;3.70;;;15.20;47.60;;;;;;5071643;28;20206;-56
2023/02/09 06:04:31;;;;;;;3.60;3.30;;;15.20;47.60;;;;;;5071369;28;20628;-54
2023/02/09 06:06:56;;;;;;;3.67;3.38;;;15.30;47.60;;;;;;5072629;28;20477;-54
2023/02/09 06:09:22;;;;;;;3.70;3.40;;;15.30;47.50;;;;;;5075081;28;20222;-51
2023/02/09 06:11:48;;;;;;;3.42;3.13;;;15.40;47.40;;;;;;5075221;28;20259;-52
2023/02/09 06:14:13;;;;;;;3.80;3.50;;;15.50;47.40;;;;;;5075901;28;20174;-54
2023/02/09 06:16:42;;;;;;;3.78;3.33;;;15.50;47.40;;;;;;5075322;28;20171;-55
2023/02/09 06:19:13;;;;;;;3.60;3.30;;;15.60;47.40;;;;;;5075357;28;20178;-56
2023/02/09 06:21:38;;;;;;;4.20;3.80;;;15.60;47.30;;;;;;5058005;28;20210;-53
2023/02/09 06:24:04;;;;;;;3.42;3.15;;;15.70;47.20;;;;;;5074829;28;20246;-54
2023/02/09 06:26:29;;;;;;;3.60;3.30;;;15.80;46.90;;;;;;5075720;28;20231;-55
2023/02/09 06:28:55;;;;;;;3.40;3.10;;;15.90;46.90;;;;;;5074786;28;20189;-55
2023/02/09 06:31:20;;;;;;;3.60;3.30;;;16.00;46.80;;;;;;5074902;28;20261;-55
2023/02/09 06:33:46;;;;;;;3.78;3.47;;;16.10;46.60;;;;;;5075378;28;20253;-56
2023/02/09 06:36:11;;;;;;;3.92;3.63;;;16.20;46.50;;;;;;5075452;28;20261;-55
2023/02/09 06:38:37;;;;;;;3.67;3.38;;;16.30;46.30;;;;;;5074399;28;20253;-54
2023/02/09 06:41:03;;;;;;;3.80;3.50;;;16.30;46.20;;;;;;5075463;28;20282;-54
2023/02/09 06:43:29;;;;;;;3.67;3.38;;;16.40;46.10;;;;;;5075487;28;20182;-55
2023/02/09 06:45:55;;;;;;;3.97;3.50;;;16.40;46.10;;;;;;5074386;28;20178;-56
2023/02/09 06:48:20;;;;;;;3.75;3.45;;;16.40;46.00;;;;;;5075226;28;20170;-56
2023/02/09 06:50:46;;;;;;;3.15;2.95;;;16.40;46.00;;;;;;5074801;28;20537;-55
2023/02/09 06:53:11;;;;;;;3.50;3.20;;;16.50;46.00;;;;;;5074354;28;20643;-54
2023/02/09 06:55:37;;;;;;;3.70;3.40;;;16.40;46.00;;;;;;5074826;28;20232;-55
2023/02/09 06:58:02;;;;;;;3.47;3.17;;;16.40;46.00;;;;;;5075267;28;20186;-57
2023/02/09 07:00:29;;;;;;;3.80;3.50;;;16.30;46.10;;;;;;5074397;28;20702;-55
2023/02/09 07:02:55;;;;;;;3.88;3.50;;;16.30;46.10;;;;;;5074664;28;20174;-56
2023/02/09 07:05:20;;;;;;;3.95;3.60;;;16.40;46.10;;;;;;5074602;28;20178;-54
2023/02/09 07:07:46;;;;;;;3.75;3.45;;;16.40;46.10;;;;;;5073766;28;20224;-51
2023/02/09 07:10:13;;;;;;;3.75;3.45;;;16.50;46.10;;;;;;5075057;28;20178;-54
2023/02/09 07:12:42;;;;;;;3.95;3.55;;;16.60;46.00;;;;;;5074297;28;20186;-54
2023/02/09 07:15:08;;;;;;;3.63;3.33;;;16.80;46.00;;;;;;5074166;28;20694;-55
2023/02/09 07:17:33;;;;;;;4.00;3.25;;;17.00;45.60;;;;;;5074276;28;20171;-55
2023/02/09 07:19:59;;;;;;;3.60;3.30;;;17.10;45.40;;;;;;5073521;28;20170;-55
2023/02/09 07:22:24;;;;;;;4.05;3.40;;;17.40;45.20;;;;;;5073896;28;20170;-53
2023/02/09 07:24:50;;;;;;;3.75;3.38;;;17.50;44.80;;;;;;5074363;28;20178;-55
2023/02/09 07:27:16;;;;;;;3.65;3.22;;;17.60;44.60;;;;;;5073907;28;20272;-55
2023/02/09 07:29:42;;;;;;;3.40;3.13;;;17.80;44.50;;;;;;5074354;28;20636;-55
2023/02/09 07:32:07;;;;;;;3.20;2.90;;;17.80;44.30;;;;;;5074288;28;20643;-55
2023/02/09 07:34:33;;;;;;;3.40;3.10;;;17.70;44.50;;;;;;5073302;28;20177;-52
2023/02/09 07:36:59;;;;;;;3.50;3.20;;;17.60;44.60;;;;;;5074258;28;20189;-54
2023/02/09 07:39:25;;;;;;;3.63;3.33;;;17.50;44.80;;;;;;5074341;28;20194;-56
2023/02/09 07:41:50;;;;;;;3.80;3.40;;;17.50;44.80;;;;;;5072974;28;20229;-54
2023/02/09 07:44:16;;;;;;;3.40;3.10;;;17.50;44.90;;;;;;5074139;28;20178;-56
2023/02/09 07:46:41;;;;;;;3.42;3.08;;;17.50;44.90;;;;;;5073723;28;20300;-57
2023/02/09 07:49:07;;;;;;;4.28;3.08;;;17.50;44.90;;;;;;5073227;28;20607;-54
2023/02/09 07:51:32;;;;;;;3.42;3.13;;;17.50;44.90;;;;;;5073368;28;20647;-54
2023/02/09 07:53:58;;;;;;;3.65;3.35;;;17.40;44.90;;;;;;5073304;28;20170;-52
2023/02/09 07:56:24;;;;;;;3.58;3.20;;;17.50;45.00;;;;;;5072401;28;20644;-68
2023/02/09 07:58:50;;;;;;;3.90;2.95;;;17.40;45.00;;;;;;5072702;28;20571;-73
2023/02/09 08:01:15;;;;;;;3.38;3.08;;;17.50;45.20;;;;;;5073290;28;20212;-75
2023/02/09 08:03:46;;;;;;;3.65;3.20;;;17.40;45.30;;;;;;5072354;28;20216;-73
2023/02/09 08:06:29;;;;;;;4.93;3.47;;;17.50;45.20;;;;;;5072620;28;20588;-72
2023/02/09 08:08:55;;;;;;;4.53;3.63;;;17.50;45.50;;;;;;5072471;28;20222;-67
2023/02/09 08:11:27;;;;;;;3.53;3.22;;;17.60;45.50;;;;;;5072986;28;20508;-67
2023/02/09 08:13:54;;;;;;;4.35;3.80;;;17.60;45.40;;;;;;5055206;28;20185;-71
2023/02/09 08:16:21;;;;;;;4.25;3.15;;;17.60;45.40;;;;;;5055215;28;20182;-70
2023/02/09 08:18:49;;;;;;;3.38;3.08;;;17.70;45.60;;;;;;5054641;28;20544;-70
2023/02/09 08:21:14;;;;;;;5.50;3.58;;;17.70;45.50;;;;;;5072979;28;20233;-70
2023/02/09 08:23:41;;;;;;;3.72;3.10;;;17.70;45.60;;;;;;5054104;28;20731;-68
2023/02/09 08:26:07;;;;;;;3.13;2.83;;;17.70;45.60;;;;;;5055094;28;20198;-68
2023/02/09 08:28:33;;;;;;;3.17;2.97;;;17.80;45.60;;;;;;5054751;28;20174;-69
2023/02/09 08:30:59;;;;;;;4.55;3.10;;;17.80;45.70;;;;;;5070766;28;20170;-73
2023/02/09 08:33:24;;;;;;;3.28;2.97;;;17.70;45.80;;;;;;5072984;28;20274;-71
2023/02/09 08:35:52;;;;;;;3.85;3.45;;;17.70;45.80;;;;;;5072873;28;20231;-73
2023/02/09 08:38:18;;;;;;;5.15;3.75;;;17.70;45.80;;;;;;5072520;28;20179;-71
2023/02/09 08:40:44;;;;;;;3.40;3.10;;;17.70;45.60;;;;;;5072696;28;20210;-71
2023/02/09 08:43:10;;;;;;;6.03;3.17;;;17.70;45.80;;;;;;5072795;28;20177;-71
2023/02/09 08:45:36;;;;;;;4.00;3.55;;;17.70;45.80;;;;;;5072057;28;20175;-69
2023/02/09 08:48:02;;;;;;;4.07;3.40;;;17.70;45.80;;;;;;5072995;28;20170;-70
2023/02/09 08:50:27;;;;;;;3.70;3.38;;;17.60;45.90;;;;;;5073104;28;20206;-70
2023/02/09 08:52:55;;;;;;;3.90;3.40;;;17.50;45.80;;;;;;5072124;28;20205;-70
2023/02/09 08:55:21;;;;;;;7.25;3.90;;;17.50;46.00;;;;;;5073102;28;20261;-71
2023/02/09 08:57:46;;;;;;;3.65;3.30;;;17.50;46.00;;;;;;5072014;28;20171;-73
2023/02/09 09:00:12;;;;;;;3.60;3.30;;;17.40;46.00;;;;;;5072269;28;20174;-73
2023/02/09 09:02:38;;;;;;;4.20;3.78;;;17.40;46.10;;;;;;5072536;28;20178;-73
2023/02/09 09:05:04;;;;;;;3.45;3.15;;;17.30;46.10;;;;;;5072864;28;20170;-71
2023/02/09 09:07:29;;;;;;;3.67;3.33;;;17.30;46.20;;;;;;5072625;28;20174;-71
2023/02/09 09:09:55;;;;;;;4.22;3.35;;;17.30;46.20;;;;;;5072474;28;20695;-71
2023/02/09 09:12:20;;;;;;;3.70;3.40;;;17.40;46.30;;;;;;5072637;28;20174;-70
2023/02/09 09:14:46;;;;;;;3.53;3.00;;;17.40;46.20;;;;;;5071739;28;20174;-71
2023/02/09 09:17:11;;;;;;;4.72;3.70;;;17.40;46.30;;;;;;5072850;28;20219;-71
2023/02/09 09:19:37;;;;;;;3.70;3.30;;;17.40;46.70;;;;;;5072463;28;20192;-72
2023/02/09 09:22:03;;;;;;;4.15;3.75;;;17.40;46.20;;;;;;5072339;28;20210;-71
2023/02/09 09:24:29;;;;;;;3.92;3.53;;;17.50;46.30;;;;;;5072667;28;20640;-69
2023/02/09 09:26:55;;;;;;;4.13;3.72;;;17.50;46.20;;;;;;5071780;28;20261;-70
2023/02/09 09:29:20;;;;;;;3.80;3.47;;;17.50;46.30;;;;;;5054816;28;20258;-69
2023/02/09 09:31:46;;;;;;;3.55;3.25;;;17.50;46.20;;;;;;5072314;28;20178;-73
2023/02/09 09:34:11;;;;;;;4.13;3.53;;;17.50;46.20;;;;;;5072233;28;20217;-71
2023/02/09 09:36:37;;;;;;;4.40;3.38;;;17.50;46.20;;;;;;5072538;28;20201;-71
2023/02/09 09:39:02;;;;;;;3.85;3.40;;;17.50;46.10;;;;;;5072719;28;20175;-71
2023/02/09 09:41:35;;;;;;;4.00;3.55;;;17.60;46.30;;;;;;5071949;28;20202;-70
2023/02/09 09:44:01;;;;;;;3.63;3.33;;;17.50;46.90;;;;;;5059067;28;20231;-69
2023/02/09 09:46:35;;;;;;;4.68;3.67;;;17.40;46.20;;;;;;5076528;28;20178;-69
2023/02/09 09:49:01;;;;;;;3.85;3.40;;;17.40;46.40;;;;;;5057896;28;20256;-69
2023/02/09 09:51:35;;;;;;;5.03;3.38;;;17.30;46.40;;;;;;5076161;28;20217;-70
2023/02/09 09:54:02;;;;;;;4.00;3.35;;;17.30;46.50;;;;;;5058130;28;20252;-71
2023/02/09 09:56:28;;;;;;;3.50;3.20;;;17.30;46.50;;;;;;5058037;28;20187;-72
2023/02/09 09:58:54;;;;;;;4.72;3.75;;;17.40;46.50;;;;;;5058300;28;20170;-73
2023/02/09 10:01:22;;;;;;;3.90;3.53;;;17.40;46.50;;;;;;5075908;28;20216;-73
2023/02/09 10:03:48;;;;;;;4.00;3.60;;;17.40;46.50;;;;;;5075279;28;20664;-72
2023/02/09 10:06:22;;;;;;;4.20;3.80;;;17.40;46.40;;;;;;5076072;28;20205;-71
2023/02/09 10:09:03;;;;;;;3.78;3.20;;;17.40;46.40;;;;;;5075368;28;20237;-71
2023/02/09 10:11:52;;;;;;;4.32;3.92;;;17.40;46.40;;;;;;5057991;28;20548;-71
2023/02/09 10:14:18;;;;;;;4.15;3.75;;;17.30;46.40;;;;;;5058384;28;20178;-72
2023/02/09 10:16:43;;;;;;;3.55;3.25;;;17.20;46.40;;;;;;5074765;28;20177;-72
2023/02/09 10:19:20;;;;;;;4.82;4.22;;;17.20;46.50;;;;;;5075820;28;20227;-72
2023/02/09 10:21:45;;;;;;;4.30;3.83;;;17.30;46.60;;;;;;5075011;28;20241;-72
2023/02/09 10:24:13;;;;;;;3.60;3.30;;;17.20;46.60;;;;;;5075243;28;20193;-70
2023/02/09 10:26:39;;;;;;;3.42;3.13;;;17.20;46.60;;;;;;5075224;28;20651;-70
2023/02/09 10:29:24;;;;;;;4.07;3.65;;;17.30;46.60;;;;;;5075583;28;20175;-70
2023/02/09 10:31:58;;;;;;;4.07;3.67;;;17.30;46.50;;;;;;5074597;28;20182;-73
2023/02/09 10:34:30;;;;;;;4.20;3.78;;;17.40;46.50;;;;;;5058681;28;20201;-73
2023/02/09 10:37:26;;;;;;;4.10;3.75;;;17.40;46.40;;;;;;5057803;28;20206;-73
2023/02/09 10:40:14;;;;;;;4.80;3.80;;;17.40;46.40;;;;;;5069750;28;20191;-73
2023/02/09 10:42:42;;;;;;;3.72;3.38;;;17.30;46.40;;;;;;5075217;28;20181;-72
2023/02/09 10:45:13;;;;;;;3.92;3.40;;;17.30;46.40;;;;;;5074423;28;20170;-72
2023/02/09 10:47:39;;;;;;;3.72;3.42;;;17.30;46.50;;;;;;5075032;28;20590;-71
2023/02/09 10:50:10;;;;;;;3.90;3.53;;;17.20;46.40;;;;;;5057439;28;20684;-71
2023/02/09 10:52:37;;;;;;;4.18;3.50;;;17.20;46.50;;;;;;5074086;28;20644;-72
2023/02/09 10:55:15;;;;;;;4.07;3.63;;;17.30;46.50;;;;;;5057611;28;20174;-73
2023/02/09 10:57:41;;;;;;;3.95;3.53;;;17.30;46.50;;;;;;5074851;28;20251;-73
2023/02/09 11:00:16;;;;;;;3.92;3.58;;;17.30;46.50;;;;;;5074614;28;20578;-73
2023/02/09 11:02:56;;;;;;;4.30;3.53;;;17.40;46.40;;;;;;5074784;28;20222;-73
2023/02/09 11:05:21;;;;;;;3.95;3.55;;;17.30;46.40;;;;;;5074152;28;20175;-72
2023/02/09 11:07:49;;;;;;;3.88;3.47;;;17.30;46.40;;;;;;5074545;28;20697;-73
2023/02/09 11:10:15;;;;;;;3.22;2.92;;;17.30;46.40;;;;;;5056975;28;20218;-72
2023/02/09 11:12:42;;;;;;;3.80;3.50;;;17.30;46.40;;;;;;5056105;28;20258;-74
2023/02/09 11:15:12;;;;;;;3.63;3.33;;;17.30;46.50;;;;;;5057446;28;20208;-74
2023/02/09 11:17:47;;;;;;;3.70;3.40;;;17.20;46.60;;;;;;5056844;28;20179;-72
2023/02/09 11:20:18;;;;;;;3.63;3.30;;;17.20;46.60;;;;;;5057116;28;20170;-74
2023/02/09 11:22:52;;;;;;;4.10;3.70;;;17.20;46.60;;;;;;5074439;28;20174;-72
2023/02/09 11:25:54;;;;;;;3.63;3.33;;;17.30;46.70;;;;;;5056537;28;20194;-71
2023/02/09 11:28:29;;;;;;;3.88;3.40;;;17.30;46.60;;;;;;5058831;28;20632;-71
2023/02/09 11:31:08;;;;;;;3.90;3.58;;;17.30;46.50;;;;;;5056900;28;20328;-72
2023/02/09 11:33:59;;;;;;;3.63;3.25;;;17.30;46.50;;;;;;5056722;28;20181;-73
2023/02/09 11:36:47;;;;;;;3.40;3.10;;;17.30;46.60;;;;;;5074457;28;20179;-73
2023/02/09 11:39:51;;;;;;;4.20;3.20;;;17.20;46.50;;;;;;5056907;28;20210;-73
2023/02/09 11:45:08;;;;;;;3.90;3.53;;;17.10;46.70;;;;;;5074409;28;20173;-70
2023/02/09 11:47:59;;;;;;;4.28;3.50;;;17.10;46.80;;;;;;5055531;28;20324;-70
2023/02/09 11:50:37;;;;;;;4.20;3.80;;;17.10;46.90;;;;;;5058377;28;20198;-69
2023/02/09 11:53:27;;;;;;;4.80;3.83;;;17.10;46.90;;;;;;5073697;28;20174;-71
2023/02/09 11:55:59;;;;;;;3.85;3.55;;;17.10;46.80;;;;;;5071752;28;20186;-73
2023/02/09 11:58:43;;;;;;;4.55;3.40;;;17.10;46.80;;;;;;5057880;28;20640;-71
2023/02/09 12:01:26;;;;;;;3.92;3.53;;;17.10;46.80;;;;;;5072415;28;20218;-71
2023/02/09 12:04:16;;;;;;;3.75;3.42;;;17.10;46.80;;;;;;5078012;28;20178;-71
2023/02/09 12:06:53;;;;;;;3.83;3.53;;;17.10;46.80;;;;;;5073560;28;20183;-69
2023/02/09 12:09:20;;;;;;;3.85;3.55;;;17.00;46.80;;;;;;5055106;28;20226;-68
2023/02/09 12:11:52;;;;;;;4.28;3.47;;;17.00;46.90;;;;;;5070655;28;20702;-70
2023/02/09 12:14:22;;;;;;;4.20;3.80;;;17.00;46.90;;;;;;5056186;28;20221;-70
2023/02/09 12:16:53;;;;;;;3.95;3.58;;;17.10;47.00;;;;;;5072685;28;20182;-71
2023/02/09 12:19:33;;;;;;;4.43;3.83;;;17.10;46.90;;;;;;5056379;28;20595;-71
2023/02/09 12:22:33;;;;;;;4.30;3.88;;;17.10;46.80;;;;;;5055301;28;20210;-70
2023/02/09 12:25:11;;;;;;;4.07;3.67;;;17.10;46.80;;;;;;5072776;28;20235;-69
2023/02/09 12:27:38;;;;;;;5.05;3.47;;;17.10;46.80;;;;;;5072597;28;20711;-69
2023/02/09 12:30:38;;;;;;;3.88;3.47;;;17.10;46.80;;;;;;5066174;28;20258;-69
2023/02/09 12:33:21;;;;;;;4.18;3.78;;;17.00;46.80;;;;;;5073378;28;20273;-71
2023/02/09 12:36:09;;;;;;;4.20;3.80;;;17.00;46.90;;;;;;5072589;28;20181;-73
2023/02/09 12:38:57;;;;;;;4.15;3.75;;;17.00;46.90;;;;;;5072318;28;20175;-72
2023/02/09 12:41:32;;;;;;;4.13;3.72;;;17.00;47.00;;;;;;5073246;28;20285;-69
2023/02/09 12:44:24;;;;;;;3.85;3.55;;;17.00;47.00;;;;;;5072183;28;20648;-70
2023/02/09 12:46:54;;;;;;;4.40;3.67;;;17.10;46.90;;;;;;5049156;28;20175;-67
2023/02/09 12:49:26;;;;;;;3.92;3.58;;;17.10;46.90;;;;;;5055029;28;20245;-66
2023/02/09 12:52:01;;;;;;;4.00;3.47;;;17.10;47.00;;;;;;5072346;28;20588;-68
2023/02/09 12:54:47;;;;;;;5.05;3.70;;;17.00;47.00;;;;;;5055593;28;20174;-69
2023/02/09 12:57:15;;;;;;;5.18;4.18;;;17.00;47.30;;;;;;5072511;28;20182;-70
2023/02/09 12:59:54;;;;;;;4.50;4.05;;;17.00;47.30;;;;;;5071867;28;20178;-71
2023/02/09 13:02:32;;;;;;;3.83;3.53;;;17.00;47.30;;;;;;5072835;28;20217;-69
2023/02/09 13:05:10;;;;;;;7.05;3.80;;;17.00;47.30;;;;;;5051186;28;20209;-69
2023/02/09 13:08:09;;;;;;;5.45;3.85;;;17.00;47.50;;;;;;5052209;28;20692;-68
2023/02/09 13:10:51;;;;;;;4.03;3.55;;;17.10;48.10;;;;;;5052284;28;20187;-69
2023/02/09 13:13:32;;;;;;;6.65;3.55;;;17.20;47.40;;;;;;5052294;28;20175;-71